sensor_id;sensor_type;location;lat;lon;timestamp;P1;durP1;ratioP1;P2;durP2;ratioP2
19782;SDS011;10051;40.294;-3.754;2023-03-20T00:01:56;7.20;;;3.58;;
19782;SDS011;10051;40.294;-3.754;2023-03-20T00:04:22;6.63;;;3.28;;
19782;SDS011;10051;40.294;-3.754;2023-03-20T00:06:47;6.82;;;3.00;;
19782;SDS011;10051;40.294;-3.754;2023-03-20T00:09:13;7.70;;;3.08;;
19782;SDS011;10051;40.294;-3.754;2023-03-20T00:11:40;6.15;;;3.08;;
19782;SDS011;10051;40.294;-3.754;2023-03-20T00:14:15;7.03;;;3.00;;
19782;SDS011;10051;40.294;-3.754;2023-03-20T00:16:44;8.25;;;2.70;;
19782;SDS011;10051;40.294;-3.754;2023-03-20T00:19:21;7.20;;;2.90;;
19782;SDS011;10051;40.294;-3.754;2023-03-20T00:21:50;5.45;;;2.92;;
19782;SDS011;10051;40.294;-3.754;2023-03-20T00:24:17;6.10;;;2.80;;
19782;SDS011;10051;40.294;-3.754;2023-03-20T00:26:43;7.20;;;2.85;;
19782;SDS011;10051;40.294;-3.754;2023-03-20T00:29:20;6.80;;;2.80;;
19782;SDS011;10051;40.294;-3.754;2023-03-20T00:31:52;5.70;;;2.83;;
19782;SDS011;10051;40.294;-3.754;2023-03-20T00:34:20;8.50;;;3.33;;
19782;SDS011;10051;40.294;-3.754;2023-03-20T00:36:48;10.52;;;2.97;;
19782;SDS011;10051;40.294;-3.754;2023-03-20T00:39:14;6.85;;;3.10;;
19782;SDS011;10051;40.294;-3.754;2023-03-20T00:44:32;7.43;;;3.17;;
19782;SDS011;10051;40.294;-3.754;2023-03-20T00:47:17;6.05;;;2.85;;
19782;SDS011;10051;40.294;-3.754;2023-03-20T00:49:45;6.55;;;3.10;;
19782;SDS011;10051;40.294;-3.754;2023-03-20T00:52:11;6.40;;;2.90;;
19782;SDS011;10051;40.294;-3.754;2023-03-20T00:54:38;7.72;;;3.17;;
19782;SDS011;10051;40.294;-3.754;2023-03-20T00:57:05;7.18;;;2.65;;
19782;SDS011;10051;40.294;-3.754;2023-03-20T00:59:36;7.00;;;2.88;;
19782;SDS011;10051;40.294;-3.754;2023-03-20T01:02:04;7.20;;;2.75;;
19782;SDS011;10051;40.294;-3.754;2023-03-20T01:04:33;6.55;;;2.67;;
19782;SDS011;10051;40.294;-3.754;2023-03-20T01:07:01;4.28;;;2.40;;
19782;SDS011;10051;40.294;-3.754;2023-03-20T01:09:26;5.32;;;2.63;;
19782;SDS011;10051;40.294;-3.754;2023-03-20T01:11:52;4.35;;;2.60;;
19782;SDS011;10051;40.294;-3.754;2023-03-20T01:14:18;4.50;;;2.75;;
19782;SDS011;10051;40.294;-3.754;2023-03-20T01:16:43;4.72;;;2.90;;
19782;SDS011;10051;40.294;-3.754;2023-03-20T01:19:10;5.90;;;2.90;;
19782;SDS011;10051;40.294;-3.754;2023-03-20T01:21:38;6.50;;;3.40;;
19782;SDS011;10051;40.294;-3.754;2023-03-20T01:24:03;6.93;;;2.90;;
19782;SDS011;10051;40.294;-3.754;2023-03-20T01:26:33;8.60;;;3.40;;
19782;SDS011;10051;40.294;-3.754;2023-03-20T01:29:20;8.63;;;3.55;;
19782;SDS011;10051;40.294;-3.754;2023-03-20T01:31:47;6.80;;;3.33;;
19782;SDS011;10051;40.294;-3.754;2023-03-20T01:34:13;6.47;;;3.28;;
19782;SDS011;10051;40.294;-3.754;2023-03-20T01:36:50;9.10;;;3.50;;
19782;SDS011;10051;40.294;-3.754;2023-03-20T01:39:17;10.05;;;3.67;;
19782;SDS011;10051;40.294;-3.754;2023-03-20T01:41:48;7.03;;;3.47;;
19782;SDS011;10051;40.294;-3.754;2023-03-20T01:44:23;8.18;;;3.58;;
19782;SDS011;10051;40.294;-3.754;2023-03-20T01:46:52;8.02;;;3.28;;
19782;SDS011;10051;40.294;-3.754;2023-03-20T01:51:43;9.52;;;3.80;;
19782;SDS011;10051;40.294;-3.754;2023-03-20T01:54:12;7.22;;;3.22;;
19782;SDS011;10051;40.294;-3.754;2023-03-20T01:56:45;7.35;;;3.38;;
19782;SDS011;10051;40.294;-3.754;2023-03-20T01:59:21;7.63;;;3.85;;
19782;SDS011;10051;40.294;-3.754;2023-03-20T02:01:51;6.65;;;3.60;;
19782;SDS011;10051;40.294;-3.754;2023-03-20T02:04:17;7.90;;;3.03;;
19782;SDS011;10051;40.294;-3.754;2023-03-20T02:06:49;7.10;;;2.88;;
19782;SDS011;10051;40.294;-3.754;2023-03-20T02:09:16;6.40;;;2.50;;
19782;SDS011;10051;40.294;-3.754;2023-03-20T02:11:41;5.88;;;2.40;;
19782;SDS011;10051;40.294;-3.754;2023-03-20T02:14:09;6.22;;;2.47;;
19782;SDS011;10051;40.294;-3.754;2023-03-20T02:16:36;5.45;;;2.42;;
19782;SDS011;10051;40.294;-3.754;2023-03-20T02:19:02;7.10;;;2.70;;
19782;SDS011;10051;40.294;-3.754;2023-03-20T02:21:46;7.40;;;2.70;;
19782;SDS011;10051;40.294;-3.754;2023-03-20T02:27:31;6.80;;;2.50;;
19782;SDS011;10051;40.294;-3.754;2023-03-20T02:44:01;8.23;;;3.60;;
19782;SDS011;10051;40.294;-3.754;2023-03-20T02:49:09;6.57;;;3.22;;
19782;SDS011;10051;40.294;-3.754;2023-03-20T03:02:46;5.25;;;2.80;;
19782;SDS011;10051;40.294;-3.754;2023-03-20T03:05:19;5.10;;;2.88;;
19782;SDS011;10051;40.294;-3.754;2023-03-20T03:07:49;8.27;;;2.70;;
19782;SDS011;10051;40.294;-3.754;2023-03-20T03:10:23;6.30;;;2.60;;
19782;SDS011;10051;40.294;-3.754;2023-03-20T03:12:55;7.22;;;2.47;;
19782;SDS011;10051;40.294;-3.754;2023-03-20T03:15:34;3.83;;;2.10;;
19782;SDS011;10051;40.294;-3.754;2023-03-20T03:18:05;4.07;;;2.05;;
19782;SDS011;10051;40.294;-3.754;2023-03-20T03:20:36;4.53;;;2.20;;
19782;SDS011;10051;40.294;-3.754;2023-03-20T03:23:03;3.88;;;2.00;;
19782;SDS011;10051;40.294;-3.754;2023-03-20T03:25:34;3.67;;;2.20;;
19782;SDS011;10051;40.294;-3.754;2023-03-20T03:28:22;6.60;;;2.40;;
19782;SDS011;10051;40.294;-3.754;2023-03-20T03:30:50;4.95;;;2.50;;
19782;SDS011;10051;40.294;-3.754;2023-03-20T03:33:20;3.58;;;2.13;;
19782;SDS011;10051;40.294;-3.754;2023-03-20T03:35:53;4.18;;;2.00;;
19782;SDS011;10051;40.294;-3.754;2023-03-20T03:45:58;2.90;;;2.00;;
19782;SDS011;10051;40.294;-3.754;2023-03-20T03:48:43;5.50;;;1.77;;
19782;SDS011;10051;40.294;-3.754;2023-03-20T03:51:15;5.28;;;2.10;;
19782;SDS011;10051;40.294;-3.754;2023-03-20T03:53:44;3.40;;;1.88;;
19782;SDS011;10051;40.294;-3.754;2023-03-20T03:56:15;3.90;;;2.10;;
19782;SDS011;10051;40.294;-3.754;2023-03-20T03:58:47;3.88;;;1.90;;
19782;SDS011;10051;40.294;-3.754;2023-03-20T04:01:16;2.25;;;1.70;;
19782;SDS011;10051;40.294;-3.754;2023-03-20T04:03:49;3.47;;;1.85;;
19782;SDS011;10051;40.294;-3.754;2023-03-20T04:06:18;3.22;;;1.83;;
19782;SDS011;10051;40.294;-3.754;2023-03-20T04:08:44;4.45;;;2.00;;
19782;SDS011;10051;40.294;-3.754;2023-03-20T04:11:28;6.70;;;2.00;;
19782;SDS011;10051;40.294;-3.754;2023-03-20T04:13:54;5.85;;;2.08;;
19782;SDS011;10051;40.294;-3.754;2023-03-20T04:16:22;6.05;;;2.30;;
19782;SDS011;10051;40.294;-3.754;2023-03-20T04:18:48;4.00;;;2.28;;
19782;SDS011;10051;40.294;-3.754;2023-03-20T04:21:14;4.72;;;2.25;;
19782;SDS011;10051;40.294;-3.754;2023-03-20T04:23:40;5.60;;;2.40;;
19782;SDS011;10051;40.294;-3.754;2023-03-20T04:26:07;3.55;;;2.30;;
19782;SDS011;10051;40.294;-3.754;2023-03-20T04:28:32;5.00;;;2.42;;
19782;SDS011;10051;40.294;-3.754;2023-03-20T04:30:59;5.65;;;2.40;;
19782;SDS011;10051;40.294;-3.754;2023-03-20T04:33:25;6.25;;;2.33;;
19782;SDS011;10051;40.294;-3.754;2023-03-20T04:35:52;5.75;;;2.38;;
19782;SDS011;10051;40.294;-3.754;2023-03-20T04:38:18;3.80;;;2.20;;
19782;SDS011;10051;40.294;-3.754;2023-03-20T04:40:45;5.90;;;2.50;;
19782;SDS011;10051;40.294;-3.754;2023-03-20T04:43:12;5.15;;;2.50;;
19782;SDS011;10051;40.294;-3.754;2023-03-20T04:45:38;6.22;;;2.55;;
19782;SDS011;10051;40.294;-3.754;2023-03-20T04:48:04;4.95;;;2.47;;
19782;SDS011;10051;40.294;-3.754;2023-03-20T04:50:30;4.30;;;2.20;;
19782;SDS011;10051;40.294;-3.754;2023-03-20T04:52:56;5.30;;;2.38;;
19782;SDS011;10051;40.294;-3.754;2023-03-20T04:55:22;5.13;;;2.25;;
19782;SDS011;10051;40.294;-3.754;2023-03-20T04:57:48;5.10;;;2.70;;
19782;SDS011;10051;40.294;-3.754;2023-03-20T05:00:14;4.90;;;2.17;;
19782;SDS011;10051;40.294;-3.754;2023-03-20T05:02:40;5.82;;;2.72;;
19782;SDS011;10051;40.294;-3.754;2023-03-20T05:05:06;8.27;;;2.47;;
19782;SDS011;10051;40.294;-3.754;2023-03-20T05:07:32;4.85;;;2.40;;
19782;SDS011;10051;40.294;-3.754;2023-03-20T05:09:58;5.32;;;2.45;;
19782;SDS011;10051;40.294;-3.754;2023-03-20T05:12:24;5.25;;;2.30;;
19782;SDS011;10051;40.294;-3.754;2023-03-20T05:14:51;6.07;;;2.55;;
19782;SDS011;10051;40.294;-3.754;2023-03-20T05:17:19;5.63;;;2.40;;
19782;SDS011;10051;40.294;-3.754;2023-03-20T05:19:45;6.15;;;2.65;;
19782;SDS011;10051;40.294;-3.754;2023-03-20T05:22:11;6.07;;;2.55;;
19782;SDS011;10051;40.294;-3.754;2023-03-20T05:24:37;5.70;;;2.40;;
19782;SDS011;10051;40.294;-3.754;2023-03-20T05:27:03;7.07;;;2.28;;
19782;SDS011;10051;40.294;-3.754;2023-03-20T05:29:28;5.32;;;2.20;;
19782;SDS011;10051;40.294;-3.754;2023-03-20T05:31:54;6.90;;;2.30;;
19782;SDS011;10051;40.294;-3.754;2023-03-20T05:34:20;8.30;;;2.58;;
19782;SDS011;10051;40.294;-3.754;2023-03-20T05:36:45;5.88;;;2.47;;
19782;SDS011;10051;40.294;-3.754;2023-03-20T05:39:11;3.85;;;1.90;;
19782;SDS011;10051;40.294;-3.754;2023-03-20T05:41:37;3.85;;;1.98;;
19782;SDS011;10051;40.294;-3.754;2023-03-20T05:44:03;4.28;;;1.70;;
19782;SDS011;10051;40.294;-3.754;2023-03-20T05:46:29;4.45;;;1.73;;
19782;SDS011;10051;40.294;-3.754;2023-03-20T05:48:54;3.25;;;2.10;;
19782;SDS011;10051;40.294;-3.754;2023-03-20T05:51:20;3.88;;;1.70;;
19782;SDS011;10051;40.294;-3.754;2023-03-20T05:53:46;4.28;;;1.88;;
19782;SDS011;10051;40.294;-3.754;2023-03-20T05:56:11;3.78;;;1.65;;
19782;SDS011;10051;40.294;-3.754;2023-03-20T05:58:37;4.72;;;2.00;;
19782;SDS011;10051;40.294;-3.754;2023-03-20T06:01:03;4.35;;;2.00;;
19782;SDS011;10051;40.294;-3.754;2023-03-20T06:03:28;3.72;;;1.80;;
19782;SDS011;10051;40.294;-3.754;2023-03-20T06:05:54;3.35;;;1.90;;
19782;SDS011;10051;40.294;-3.754;2023-03-20T06:08:20;3.70;;;1.83;;
19782;SDS011;10051;40.294;-3.754;2023-03-20T06:10:48;4.07;;;1.88;;
19782;SDS011;10051;40.294;-3.754;2023-03-20T06:13:14;3.00;;;1.77;;
19782;SDS011;10051;40.294;-3.754;2023-03-20T06:15:40;4.68;;;2.00;;
19782;SDS011;10051;40.294;-3.754;2023-03-20T06:18:05;3.05;;;1.70;;
19782;SDS011;10051;40.294;-3.754;2023-03-20T06:20:31;3.25;;;1.83;;
19782;SDS011;10051;40.294;-3.754;2023-03-20T06:22:57;3.50;;;1.77;;
19782;SDS011;10051;40.294;-3.754;2023-03-20T06:25:23;3.10;;;1.70;;
19782;SDS011;10051;40.294;-3.754;2023-03-20T06:27:48;2.78;;;1.60;;
19782;SDS011;10051;40.294;-3.754;2023-03-20T06:30:14;1.85;;;1.35;;
19782;SDS011;10051;40.294;-3.754;2023-03-20T06:32:40;4.13;;;1.40;;
19782;SDS011;10051;40.294;-3.754;2023-03-20T06:35:07;2.78;;;1.33;;
19782;SDS011;10051;40.294;-3.754;2023-03-20T06:37:33;3.60;;;1.48;;
19782;SDS011;10051;40.294;-3.754;2023-03-20T06:40:00;2.45;;;1.60;;
19782;SDS011;10051;40.294;-3.754;2023-03-20T06:42:26;1.98;;;1.48;;
19782;SDS011;10051;40.294;-3.754;2023-03-20T06:44:52;2.92;;;1.50;;
19782;SDS011;10051;40.294;-3.754;2023-03-20T06:47:17;5.13;;;1.63;;
19782;SDS011;10051;40.294;-3.754;2023-03-20T06:49:43;3.22;;;1.55;;
19782;SDS011;10051;40.294;-3.754;2023-03-20T06:52:11;4.50;;;2.00;;
19782;SDS011;10051;40.294;-3.754;2023-03-20T06:54:40;5.88;;;2.00;;
19782;SDS011;10051;40.294;-3.754;2023-03-20T06:57:06;3.00;;;1.80;;
19782;SDS011;10051;40.294;-3.754;2023-03-20T06:59:31;3.15;;;1.80;;
19782;SDS011;10051;40.294;-3.754;2023-03-20T07:01:57;3.63;;;1.85;;
19782;SDS011;10051;40.294;-3.754;2023-03-20T07:04:23;3.40;;;1.73;;
19782;SDS011;10051;40.294;-3.754;2023-03-20T07:06:49;6.90;;;2.17;;
19782;SDS011;10051;40.294;-3.754;2023-03-20T07:09:15;3.35;;;1.88;;
19782;SDS011;10051;40.294;-3.754;2023-03-20T07:11:41;2.90;;;1.73;;
19782;SDS011;10051;40.294;-3.754;2023-03-20T07:14:07;4.75;;;1.90;;
19782;SDS011;10051;40.294;-3.754;2023-03-20T07:16:33;3.25;;;1.70;;
19782;SDS011;10051;40.294;-3.754;2023-03-20T07:18:59;2.95;;;1.70;;
19782;SDS011;10051;40.294;-3.754;2023-03-20T07:21:24;5.45;;;1.77;;
19782;SDS011;10051;40.294;-3.754;2023-03-20T07:23:50;2.75;;;1.85;;
19782;SDS011;10051;40.294;-3.754;2023-03-20T07:26:16;5.97;;;1.95;;
19782;SDS011;10051;40.294;-3.754;2023-03-20T07:28:42;3.80;;;2.17;;
19782;SDS011;10051;40.294;-3.754;2023-03-20T07:31:09;2.97;;;1.90;;
19782;SDS011;10051;40.294;-3.754;2023-03-20T07:33:44;3.75;;;1.90;;
19782;SDS011;10051;40.294;-3.754;2023-03-20T07:36:10;3.72;;;2.17;;
19782;SDS011;10051;40.294;-3.754;2023-03-20T07:38:36;4.00;;;1.92;;
19782;SDS011;10051;40.294;-3.754;2023-03-20T07:41:01;4.78;;;2.33;;
19782;SDS011;10051;40.294;-3.754;2023-03-20T07:43:27;2.75;;;2.03;;
19782;SDS011;10051;40.294;-3.754;2023-03-20T07:45:53;3.92;;;2.08;;
19782;SDS011;10051;40.294;-3.754;2023-03-20T07:48:18;3.60;;;1.90;;
19782;SDS011;10051;40.294;-3.754;2023-03-20T07:50:44;3.38;;;1.90;;
19782;SDS011;10051;40.294;-3.754;2023-03-20T07:53:10;4.50;;;1.90;;
19782;SDS011;10051;40.294;-3.754;2023-03-20T07:55:35;2.90;;;1.90;;
19782;SDS011;10051;40.294;-3.754;2023-03-20T07:58:01;5.28;;;1.90;;
19782;SDS011;10051;40.294;-3.754;2023-03-20T08:00:27;4.40;;;2.05;;
19782;SDS011;10051;40.294;-3.754;2023-03-20T08:02:52;3.58;;;2.00;;
19782;SDS011;10051;40.294;-3.754;2023-03-20T08:05:18;7.13;;;2.10;;
19782;SDS011;10051;40.294;-3.754;2023-03-20T08:07:43;3.08;;;2.05;;
19782;SDS011;10051;40.294;-3.754;2023-03-20T08:10:10;6.25;;;2.38;;
19782;SDS011;10051;40.294;-3.754;2023-03-20T08:12:35;8.77;;;2.38;;
19782;SDS011;10051;40.294;-3.754;2023-03-20T08:15:01;5.78;;;2.55;;
19782;SDS011;10051;40.294;-3.754;2023-03-20T08:17:27;5.85;;;2.70;;
19782;SDS011;10051;40.294;-3.754;2023-03-20T08:19:52;4.50;;;2.53;;
19782;SDS011;10051;40.294;-3.754;2023-03-20T08:22:18;5.28;;;2.40;;
19782;SDS011;10051;40.294;-3.754;2023-03-20T08:24:44;7.22;;;2.55;;
19782;SDS011;10051;40.294;-3.754;2023-03-20T08:27:10;7.35;;;2.55;;
19782;SDS011;10051;40.294;-3.754;2023-03-20T08:29:35;3.42;;;2.30;;
19782;SDS011;10051;40.294;-3.754;2023-03-20T08:32:01;5.35;;;2.22;;
19782;SDS011;10051;40.294;-3.754;2023-03-20T08:34:27;6.20;;;2.60;;
19782;SDS011;10051;40.294;-3.754;2023-03-20T08:36:52;4.82;;;2.35;;
19782;SDS011;10051;40.294;-3.754;2023-03-20T08:39:18;5.45;;;2.17;;
19782;SDS011;10051;40.294;-3.754;2023-03-20T08:41:44;6.35;;;2.05;;
19782;SDS011;10051;40.294;-3.754;2023-03-20T08:44:10;3.53;;;1.60;;
19782;SDS011;10051;40.294;-3.754;2023-03-20T08:46:37;5.32;;;1.88;;
19782;SDS011;10051;40.294;-3.754;2023-03-20T08:49:03;3.15;;;1.63;;
19782;SDS011;10051;40.294;-3.754;2023-03-20T08:51:30;2.35;;;1.27;;
19782;SDS011;10051;40.294;-3.754;2023-03-20T08:53:56;2.08;;;1.38;;
19782;SDS011;10051;40.294;-3.754;2023-03-20T08:56:22;1.90;;;1.30;;
19782;SDS011;10051;40.294;-3.754;2023-03-20T08:58:47;1.95;;;1.40;;
19782;SDS011;10051;40.294;-3.754;2023-03-20T09:01:13;3.30;;;1.27;;
19782;SDS011;10051;40.294;-3.754;2023-03-20T09:03:39;2.67;;;1.45;;
19782;SDS011;10051;40.294;-3.754;2023-03-20T09:06:06;3.97;;;1.45;;
19782;SDS011;10051;40.294;-3.754;2023-03-20T09:08:33;3.90;;;1.30;;
19782;SDS011;10051;40.294;-3.754;2023-03-20T09:11:00;2.63;;;1.42;;
19782;SDS011;10051;40.294;-3.754;2023-03-20T09:13:26;3.67;;;1.40;;
19782;SDS011;10051;40.294;-3.754;2023-03-20T09:15:52;2.50;;;1.40;;
19782;SDS011;10051;40.294;-3.754;2023-03-20T09:18:19;2.42;;;1.50;;
19782;SDS011;10051;40.294;-3.754;2023-03-20T09:20:45;1.92;;;1.30;;
19782;SDS011;10051;40.294;-3.754;2023-03-20T09:23:12;2.65;;;1.35;;
19782;SDS011;10051;40.294;-3.754;2023-03-20T09:25:37;2.88;;;1.23;;
19782;SDS011;10051;40.294;-3.754;2023-03-20T09:28:03;3.90;;;1.33;;
19782;SDS011;10051;40.294;-3.754;2023-03-20T09:30:29;3.67;;;1.40;;
19782;SDS011;10051;40.294;-3.754;2023-03-20T09:32:55;3.00;;;1.35;;
19782;SDS011;10051;40.294;-3.754;2023-03-20T09:35:21;1.88;;;1.38;;
19782;SDS011;10051;40.294;-3.754;2023-03-20T09:37:47;3.28;;;1.20;;
19782;SDS011;10051;40.294;-3.754;2023-03-20T09:40:19;8.68;;;1.35;;
19782;SDS011;10051;40.294;-3.754;2023-03-20T09:42:49;2.67;;;1.30;;
19782;SDS011;10051;40.294;-3.754;2023-03-20T09:50:57;3.88;;;1.40;;
19782;SDS011;10051;40.294;-3.754;2023-03-20T09:53:37;4.45;;;1.40;;
19782;SDS011;10051;40.294;-3.754;2023-03-20T09:56:09;2.80;;;1.40;;
19782;SDS011;10051;40.294;-3.754;2023-03-20T09:58:40;4.85;;;1.70;;
19782;SDS011;10051;40.294;-3.754;2023-03-20T10:01:06;3.08;;;1.40;;
19782;SDS011;10051;40.294;-3.754;2023-03-20T10:04:21;2.60;;;1.45;;
19782;SDS011;10051;40.294;-3.754;2023-03-20T10:06:33;3.25;;;1.50;;
19782;SDS011;10051;40.294;-3.754;2023-03-20T10:08:59;5.03;;;1.63;;
19782;SDS011;10051;40.294;-3.754;2023-03-20T10:14:06;2.95;;;1.67;;
19782;SDS011;10051;40.294;-3.754;2023-03-20T10:17:11;2.60;;;1.65;;
19782;SDS011;10051;40.294;-3.754;2023-03-20T10:19:59;3.65;;;1.70;;
19782;SDS011;10051;40.294;-3.754;2023-03-20T10:22:37;2.33;;;1.60;;
19782;SDS011;10051;40.294;-3.754;2023-03-20T10:27:59;2.25;;;1.45;;
19782;SDS011;10051;40.294;-3.754;2023-03-20T10:38:57;4.30;;;1.42;;
19782;SDS011;10051;40.294;-3.754;2023-03-20T10:41:31;2.40;;;1.50;;
19782;SDS011;10051;40.294;-3.754;2023-03-20T10:44:00;2.50;;;1.50;;
19782;SDS011;10051;40.294;-3.754;2023-03-20T10:46:30;2.50;;;1.70;;
19782;SDS011;10051;40.294;-3.754;2023-03-20T10:49:18;3.42;;;1.92;;
19782;SDS011;10051;40.294;-3.754;2023-03-20T10:51:55;3.53;;;1.70;;
19782;SDS011;10051;40.294;-3.754;2023-03-20T10:54:28;4.05;;;1.73;;
19782;SDS011;10051;40.294;-3.754;2023-03-20T10:56:58;3.20;;;1.80;;
19782;SDS011;10051;40.294;-3.754;2023-03-20T10:59:27;3.13;;;1.75;;
19782;SDS011;10051;40.294;-3.754;2023-03-20T11:01:58;4.10;;;1.70;;
19782;SDS011;10051;40.294;-3.754;2023-03-20T11:04:24;2.25;;;1.60;;
19782;SDS011;10051;40.294;-3.754;2023-03-20T11:09:27;2.67;;;1.73;;
19782;SDS011;10051;40.294;-3.754;2023-03-20T11:11:57;3.00;;;1.98;;
19782;SDS011;10051;40.294;-3.754;2023-03-20T11:14:27;3.40;;;2.00;;
19782;SDS011;10051;40.294;-3.754;2023-03-20T11:16:59;4.00;;;1.75;;
19782;SDS011;10051;40.294;-3.754;2023-03-20T11:19:34;4.93;;;1.85;;
19782;SDS011;10051;40.294;-3.754;2023-03-20T11:22:14;6.70;;;1.83;;
19782;SDS011;10051;40.294;-3.754;2023-03-20T11:24:51;3.67;;;1.70;;
19782;SDS011;10051;40.294;-3.754;2023-03-20T11:27:40;5.60;;;2.00;;
19782;SDS011;10051;40.294;-3.754;2023-03-20T11:30:06;6.80;;;1.92;;
19782;SDS011;10051;40.294;-3.754;2023-03-20T11:32:46;6.38;;;2.13;;
19782;SDS011;10051;40.294;-3.754;2023-03-20T11:35:19;3.90;;;2.10;;
19782;SDS011;10051;40.294;-3.754;2023-03-20T11:38:13;6.47;;;2.15;;
19782;SDS011;10051;40.294;-3.754;2023-03-20T11:40:41;4.20;;;1.77;;
19782;SDS011;10051;40.294;-3.754;2023-03-20T11:45:41;6.03;;;1.70;;
19782;SDS011;10051;40.294;-3.754;2023-03-20T11:48:21;5.85;;;1.83;;
19782;SDS011;10051;40.294;-3.754;2023-03-20T11:56:22;4.70;;;2.45;;
19782;SDS011;10051;40.294;-3.754;2023-03-20T11:58:54;4.35;;;1.70;;
19782;SDS011;10051;40.294;-3.754;2023-03-20T12:01:21;3.10;;;2.05;;
19782;SDS011;10051;40.294;-3.754;2023-03-20T12:06:24;3.38;;;1.70;;
19782;SDS011;10051;40.294;-3.754;2023-03-20T12:08:53;3.35;;;1.90;;
19782;SDS011;10051;40.294;-3.754;2023-03-20T12:11:39;5.47;;;1.85;;
19782;SDS011;10051;40.294;-3.754;2023-03-20T12:17:18;3.65;;;1.65;;
19782;SDS011;10051;40.294;-3.754;2023-03-20T12:19:45;3.78;;;1.48;;
19782;SDS011;10051;40.294;-3.754;2023-03-20T12:22:27;3.40;;;1.33;;
19782;SDS011;10051;40.294;-3.754;2023-03-20T12:25:00;3.35;;;1.50;;
19782;SDS011;10051;40.294;-3.754;2023-03-20T12:27:32;2.92;;;1.73;;
19782;SDS011;10051;40.294;-3.754;2023-03-20T12:30:03;3.92;;;1.80;;
19782;SDS011;10051;40.294;-3.754;2023-03-20T12:35:27;3.47;;;1.88;;
19782;SDS011;10051;40.294;-3.754;2023-03-20T12:37:55;4.55;;;1.83;;
19782;SDS011;10051;40.294;-3.754;2023-03-20T12:40:23;3.10;;;2.10;;
19782;SDS011;10051;40.294;-3.754;2023-03-20T12:43:16;3.80;;;2.17;;
19782;SDS011;10051;40.294;-3.754;2023-03-20T12:45:49;4.30;;;2.45;;
19782;SDS011;10051;40.294;-3.754;2023-03-20T12:48:36;2.72;;;1.60;;
19782;SDS011;10051;40.294;-3.754;2023-03-20T13:02:21;5.43;;;2.53;;
19782;SDS011;10051;40.294;-3.754;2023-03-20T13:07:18;4.45;;;2.15;;
19782;SDS011;10051;40.294;-3.754;2023-03-20T13:18:45;2.80;;;1.77;;
19782;SDS011;10051;40.294;-3.754;2023-03-20T13:21:26;3.50;;;1.70;;
19782;SDS011;10051;40.294;-3.754;2023-03-20T13:26:48;2.30;;;1.55;;
19782;SDS011;10051;40.294;-3.754;2023-03-20T13:38:18;2.45;;;1.50;;
19782;SDS011;10051;40.294;-3.754;2023-03-20T13:40:49;3.85;;;1.90;;
19782;SDS011;10051;40.294;-3.754;2023-03-20T13:46:05;2.55;;;1.52;;
19782;SDS011;10051;40.294;-3.754;2023-03-20T13:48:35;3.10;;;1.38;;
19782;SDS011;10051;40.294;-3.754;2023-03-20T13:53:54;1.67;;;1.30;;
19782;SDS011;10051;40.294;-3.754;2023-03-20T13:56:45;3.10;;;1.67;;
19782;SDS011;10051;40.294;-3.754;2023-03-20T13:59:34;3.03;;;1.50;;
19782;SDS011;10051;40.294;-3.754;2023-03-20T14:02:22;3.58;;;1.40;;
19782;SDS011;10051;40.294;-3.754;2023-03-20T14:05:04;4.88;;;1.48;;
19782;SDS011;10051;40.294;-3.754;2023-03-20T14:07:37;2.35;;;1.25;;
19782;SDS011;10051;40.294;-3.754;2023-03-20T14:12:53;2.20;;;1.25;;
19782;SDS011;10051;40.294;-3.754;2023-03-20T14:15:21;1.67;;;1.17;;
19782;SDS011;10051;40.294;-3.754;2023-03-20T14:17:56;2.35;;;1.20;;
19782;SDS011;10051;40.294;-3.754;2023-03-20T14:20:30;2.10;;;1.20;;
19782;SDS011;10051;40.294;-3.754;2023-03-20T14:22:58;1.85;;;1.20;;
19782;SDS011;10051;40.294;-3.754;2023-03-20T14:25:26;3.75;;;1.30;;
19782;SDS011;10051;40.294;-3.754;2023-03-20T14:30:37;2.28;;;1.20;;
19782;SDS011;10051;40.294;-3.754;2023-03-20T14:35:48;3.60;;;1.20;;
19782;SDS011;10051;40.294;-3.754;2023-03-20T14:43:38;2.90;;;1.90;;
19782;SDS011;10051;40.294;-3.754;2023-03-20T14:46:07;1.95;;;1.20;;
19782;SDS011;10051;40.294;-3.754;2023-03-20T14:49:01;2.22;;;1.17;;
19782;SDS011;10051;40.294;-3.754;2023-03-20T14:51:43;2.65;;;1.17;;
19782;SDS011;10051;40.294;-3.754;2023-03-20T14:54:30;1.58;;;1.10;;
19782;SDS011;10051;40.294;-3.754;2023-03-20T14:57:06;1.38;;;1.10;;
19782;SDS011;10051;40.294;-3.754;2023-03-20T14:59:34;1.48;;;0.88;;
19782;SDS011;10051;40.294;-3.754;2023-03-20T15:02:00;1.63;;;1.00;;
19782;SDS011;10051;40.294;-3.754;2023-03-20T15:04:28;1.30;;;1.00;;
19782;SDS011;10051;40.294;-3.754;2023-03-20T15:06:58;2.33;;;0.90;;
19782;SDS011;10051;40.294;-3.754;2023-03-20T15:09:27;1.58;;;1.05;;
19782;SDS011;10051;40.294;-3.754;2023-03-20T15:11:56;2.80;;;0.80;;
19782;SDS011;10051;40.294;-3.754;2023-03-20T15:14:30;1.08;;;0.70;;
19782;SDS011;10051;40.294;-3.754;2023-03-20T15:17:00;0.90;;;0.80;;
19782;SDS011;10051;40.294;-3.754;2023-03-20T15:19:28;1.20;;;0.80;;
19782;SDS011;10051;40.294;-3.754;2023-03-20T15:21:54;1.20;;;0.90;;
19782;SDS011;10051;40.294;-3.754;2023-03-20T15:24:24;0.88;;;0.75;;
19782;SDS011;10051;40.294;-3.754;2023-03-20T15:26:52;0.88;;;0.80;;
19782;SDS011;10051;40.294;-3.754;2023-03-20T15:29:20;3.22;;;0.88;;
19782;SDS011;10051;40.294;-3.754;2023-03-20T15:31:49;2.03;;;0.80;;
19782;SDS011;10051;40.294;-3.754;2023-03-20T15:34:23;1.42;;;0.85;;
19782;SDS011;10051;40.294;-3.754;2023-03-20T15:36:52;1.20;;;0.80;;
19782;SDS011;10051;40.294;-3.754;2023-03-20T15:39:22;1.48;;;0.80;;
19782;SDS011;10051;40.294;-3.754;2023-03-20T15:41:54;1.30;;;0.75;;
19782;SDS011;10051;40.294;-3.754;2023-03-20T15:44:25;1.10;;;0.80;;
19782;SDS011;10051;40.294;-3.754;2023-03-20T15:47:02;4.88;;;0.80;;
19782;SDS011;10051;40.294;-3.754;2023-03-20T15:49:36;1.55;;;0.90;;
19782;SDS011;10051;40.294;-3.754;2023-03-20T15:52:11;1.83;;;0.88;;
19782;SDS011;10051;40.294;-3.754;2023-03-20T15:54:45;0.85;;;0.80;;
19782;SDS011;10051;40.294;-3.754;2023-03-20T15:57:19;1.60;;;0.70;;
19782;SDS011;10051;40.294;-3.754;2023-03-20T15:59:50;1.67;;;0.70;;
19782;SDS011;10051;40.294;-3.754;2023-03-20T16:02:16;3.72;;;0.80;;
19782;SDS011;10051;40.294;-3.754;2023-03-20T16:04:46;1.05;;;0.75;;
19782;SDS011;10051;40.294;-3.754;2023-03-20T16:07:19;1.10;;;0.70;;
19782;SDS011;10051;40.294;-3.754;2023-03-20T16:09:51;1.65;;;0.80;;
19782;SDS011;10051;40.294;-3.754;2023-03-20T16:12:16;3.42;;;0.80;;
19782;SDS011;10051;40.294;-3.754;2023-03-20T16:14:43;0.98;;;0.70;;
19782;SDS011;10051;40.294;-3.754;2023-03-20T16:17:10;1.52;;;0.80;;
19782;SDS011;10051;40.294;-3.754;2023-03-20T16:19:37;1.05;;;0.60;;
19782;SDS011;10051;40.294;-3.754;2023-03-20T16:22:26;0.88;;;0.60;;
19782;SDS011;10051;40.294;-3.754;2023-03-20T16:24:55;1.27;;;0.73;;
19782;SDS011;10051;40.294;-3.754;2023-03-20T16:27:25;0.90;;;0.63;;
19782;SDS011;10051;40.294;-3.754;2023-03-20T16:29:52;1.90;;;0.88;;
19782;SDS011;10051;40.294;-3.754;2023-03-20T16:32:24;0.65;;;0.63;;
19782;SDS011;10051;40.294;-3.754;2023-03-20T16:34:57;1.92;;;0.65;;
19782;SDS011;10051;40.294;-3.754;2023-03-20T16:37:30;1.95;;;0.60;;
19782;SDS011;10051;40.294;-3.754;2023-03-20T16:42:36;1.10;;;0.70;;
19782;SDS011;10051;40.294;-3.754;2023-03-20T16:45:03;0.77;;;0.70;;
19782;SDS011;10051;40.294;-3.754;2023-03-20T16:47:34;0.65;;;0.60;;
19782;SDS011;10051;40.294;-3.754;2023-03-20T16:50:14;2.50;;;0.70;;
19782;SDS011;10051;40.294;-3.754;2023-03-20T16:52:55;1.13;;;0.70;;
19782;SDS011;10051;40.294;-3.754;2023-03-20T16:55:29;2.58;;;0.80;;
19782;SDS011;10051;40.294;-3.754;2023-03-20T16:57:59;2.35;;;0.63;;
19782;SDS011;10051;40.294;-3.754;2023-03-20T17:00:31;1.65;;;0.80;;
19782;SDS011;10051;40.294;-3.754;2023-03-20T17:03:11;0.90;;;0.70;;
19782;SDS011;10051;40.294;-3.754;2023-03-20T17:05:44;1.27;;;0.88;;
19782;SDS011;10051;40.294;-3.754;2023-03-20T17:08:14;1.10;;;0.80;;